CYBU

Details ICAO CYBU
Name Nipawin
Region Canada
Timezone America/Regina (UTC-6.0)
Plans Departing 0
Arriving 0
Stats Elevation 1,220 ft / 372 m (AMSL)
Location 53.332447° -104.008552°
Runways 2
Magnetic Variation 8.472° E
Sunrise 2018-05-24 10:44:34 UTC / 2018-05-24 04:44:34 Local
Sunset 2018-05-25 03:04:06 UTC / 2018-05-24 21:04:06 Local
Advertisement - Login to hide

Runways

ID Width Length Bearing (true) Bearing (mag) Surface Threshold Offset Overrun Length
03 75 ft / 23 m 2,933 ft / 894 m 41.00° 32.53° Asphalt 0 ft / 0 m 0 ft / 0 m
12 115 ft / 35 m 2,903 ft / 885 m 131.00° 122.53° Grass 0 ft / 0 m 0 ft / 0 m
21 75 ft / 23 m 2,933 ft / 894 m 221.00° 212.53° Asphalt 0 ft / 0 m 0 ft / 0 m
30 115 ft / 35 m 2,903 ft / 885 m 311.00° 302.53° Grass 0 ft / 0 m 0 ft / 0 m

Map

Weather


0- 5 10 15 20 25 30 35+ Temperature / ° C

Clouds and Precipitation
Forecast for 2018-05-25 00:00 UTC. Updated 19 minutes ago

Ground ~20,000 ft ~40,000 ft Winds

METAR

CYBU 242302Z AUTO 09003KT 9SM SCT009 18/17 A2965 RMK SLP044 DENSITY ALT 2200FT

TAF

Not found
Warning: Do not use this data for real-world aviation or navigation. No guarantee of current accuracy is given.